Columbus, MS

3:49 AM CST on February 06, 2016 (GMT -0600)
Golden Triangle Regional | | Change Station
CLOSE
Current Station
Airport
Location: Golden Triangle,
Elevation: 262 ft
Nearby Weather Stations
Active Advisory: Flood Warning

Elev 262 ft 33.45 °N, 88.59 °W | Updated 14 minutes ago

Clear
Clear
36 °F
Feels Like 36 °F
N
0
Wind Variable Wind from North

Today
High -- | Low -- °F
--% Chance of Precip.
Yesterday
High -- | Low -- °F
Precip. -- in
Pressure 30.35 in
Visibility 10.0 miles
Clouds Clear
Dew Point 28 °F
Humidity 75%
Rainfall 0.00 in
Snow Depth Not available.
6:46 AM 5:30 PM
Waning Crescent, 6% visible
METAR KGTR 060935Z 00000KT 10SM CLR 02/M02 A3035 RMK AO1
Pressure 30.35 in
Visibility 10.0 miles
Clouds Clear
Dew Point 28 °F
Humidity 75%
Rainfall 0.00 in
Snow Depth Not available.
6:46 AM 5:30 PM
Waning Crescent, 6% visible
METAR KGTR 060935Z 00000KT 10SM CLR 02/M02 A3035 RMK AO1

10-Day Weather Forecast

Almanac

Astronomy

Feb. 06, 2016 Rise Set
Actual Time
Civil Twilight
Nautical Twilight
Astronomical Twilight
Moon
Length of Visible Light
Length of Day
Tomorrow will be .
, % of the Moon is Illuminated

Today's Extremes

State Highs State Lows

Community

WunderPhotos

Upload Photos

1,890,933 photos uploaded!

WunderBlog® & News

Nearby

Air Quality

  Air Quality AQ Index Pollutant
Not available.

Snow Depth

Station Depth Elevation

Earthquake Activity

City Distance Mag. Time & Date
Minimum magnitude displayed is 2.5.

Coastal Water Temperatures

Place Temperature

Stations

Nearby Weather Stations

Station Location Temp. Windchill Dew Point Humidity Wind Precip. Elev Updated Type
                   

Watches & Warnings

Flood Warning
Issued: 8:19 PM CST Feb. 5, 2016 – National Weather Service

The Flood Warning continues for
the Buttahatchie river near Aberdeen
* until Sunday February 07.
* At 07 PM Friday the stage was 16.2 feet.
* Minor flooding is occurring and minor flooding is forecast.
* Flood stage is 13.0 feet.
* At 15.0 feet... water is covering a portion of airbase Road located
on the West Bank of the river. Low lying farm land is flooded


Lat... Lon 3409 8829 3409 8821 3373 8826 3365 8843
      3370 8844 3375 8839